Airfield :







YOU CAN JOIN US ON...

 
LOGIN :

Register | Disclaimer

   EN    FR    IT 

 









Legend :    VFR   Marginal VFR   IFR   Intensive IFR   Very Intensive IFR
Visi :
Ceiling :
>= 8 km
>= 3000ft
5 to 8 km
1000 to 3000 ft
1500m to 5 km
500 to 1000 ft
800 to 1500m
200 to 500 ft
< 800m
< 200 ft
Symbols :   Thunderstorms  Fog  Heavy snow  Heavy precipitations  Wind > 20 kt







- Airport Elevation : 49 ft


KOWD - Norwood Memorial

CURRENT METAR :
  • 230453Z AUTO 02004KT 3SM RA BR BKN007 BKN013 OVC026 11/09 A2992 RMK AO2 SLP131 P0020 T01060089 401560094 TSNO

EXPIRED METARs :
  • 230438Z AUTO 05005KT 3SM RA BR BKN006 BKN016 OVC044 11/09 A2992 RMK AO2 P0015 T01060089 TSNO
  • 230422Z AUTO 03006KT 3SM RA BR SCT006 BKN016 OVC046 11/09 A2992 RMK AO2 P0005 T01110089 TSNO
  • 230353Z AUTO 06003KT 4SM -RA BR BKN008 BKN015 OVC027 12/09 A2993 RMK AO2 SLP135 P0013 T01170094 TSNO
  • 230337Z AUTO 03006KT 2 1/2SM -RA BR FEW008 BKN027 OVC033 12/09 A2994 RMK AO2 P0012 T01170094 TSNO
  • 230300Z AUTO 03009KT 2SM RA BR SCT007 SCT012 OVC021 12/10 A2995 RMK AO2 P0003 T01220100 TSNO

TAF N/A
KZBW FIR / North America



MET'MAP, your aeronautical weather chart ! - Copyright ORBIFLY December 2007 - Disclaimer

ORBIFLY MET'MAP TEAM :

Programming & Development : Alexandra Zaïnal
Concept & Development : Baudouin d'Aumeries
Co-Development & Prog : Marc-Olivier Méhu
Technical & hardware support : Manuel Goepfert

Contact : metmap@orbifly.com




SOURCES & CREDITS :

   NOAA